sensor_id;sensor_type;location;lat;lon;timestamp;P1;durP1;ratioP1;P2;durP2;ratioP2
78120;SDS011;67585;44.802;10.332;2023-12-29T00:01:57;48.42;;;19.63;;
78120;SDS011;67585;44.802;10.332;2023-12-29T00:04:24;46.13;;;20.55;;
78120;SDS011;67585;44.802;10.332;2023-12-29T00:06:50;49.95;;;19.35;;
78120;SDS011;67585;44.802;10.332;2023-12-29T00:09:16;44.65;;;18.70;;
78120;SDS011;67585;44.802;10.332;2023-12-29T00:11:41;46.75;;;19.45;;
78120;SDS011;67585;44.802;10.332;2023-12-29T00:14:06;47.30;;;18.65;;
78120;SDS011;67585;44.802;10.332;2023-12-29T00:16:32;38.88;;;17.50;;
78120;SDS011;67585;44.802;10.332;2023-12-29T00:18:57;51.13;;;19.13;;
78120;SDS011;67585;44.802;10.332;2023-12-29T00:21:23;45.50;;;19.27;;
78120;SDS011;67585;44.802;10.332;2023-12-29T00:23:48;40.50;;;17.73;;
78120;SDS011;67585;44.802;10.332;2023-12-29T00:26:17;42.40;;;17.23;;
78120;SDS011;67585;44.802;10.332;2023-12-29T00:28:43;46.78;;;18.73;;
78120;SDS011;67585;44.802;10.332;2023-12-29T00:31:09;41.40;;;19.33;;
78120;SDS011;67585;44.802;10.332;2023-12-29T00:33:39;47.28;;;17.50;;
78120;SDS011;67585;44.802;10.332;2023-12-29T00:36:04;41.67;;;17.63;;
78120;SDS011;67585;44.802;10.332;2023-12-29T00:38:30;49.03;;;18.33;;
78120;SDS011;67585;44.802;10.332;2023-12-29T00:40:55;37.78;;;16.60;;
78120;SDS011;67585;44.802;10.332;2023-12-29T00:43:21;44.13;;;18.50;;
78120;SDS011;67585;44.802;10.332;2023-12-29T00:45:47;39.83;;;17.73;;
78120;SDS011;67585;44.802;10.332;2023-12-29T00:48:13;44.67;;;17.00;;
78120;SDS011;67585;44.802;10.332;2023-12-29T00:50:38;42.38;;;17.00;;
78120;SDS011;67585;44.802;10.332;2023-12-29T00:53:03;44.05;;;17.17;;
78120;SDS011;67585;44.802;10.332;2023-12-29T00:55:29;45.30;;;18.40;;
78120;SDS011;67585;44.802;10.332;2023-12-29T00:57:54;41.15;;;15.85;;
78120;SDS011;67585;44.802;10.332;2023-12-29T01:00:20;36.67;;;15.00;;
78120;SDS011;67585;44.802;10.332;2023-12-29T01:02:46;36.25;;;15.68;;
78120;SDS011;67585;44.802;10.332;2023-12-29T01:05:14;39.40;;;16.10;;
78120;SDS011;67585;44.802;10.332;2023-12-29T01:07:41;41.80;;;15.63;;
78120;SDS011;67585;44.802;10.332;2023-12-29T01:10:07;39.78;;;16.08;;
78120;SDS011;67585;44.802;10.332;2023-12-29T01:12:33;39.40;;;15.48;;
78120;SDS011;67585;44.802;10.332;2023-12-29T01:14:58;32.33;;;14.52;;
78120;SDS011;67585;44.802;10.332;2023-12-29T01:17:24;40.90;;;18.27;;
78120;SDS011;67585;44.802;10.332;2023-12-29T01:19:52;39.78;;;14.30;;
78120;SDS011;67585;44.802;10.332;2023-12-29T01:22:18;41.92;;;15.45;;
78120;SDS011;67585;44.802;10.332;2023-12-29T01:24:43;39.22;;;15.45;;
78120;SDS011;67585;44.802;10.332;2023-12-29T01:27:08;38.90;;;15.40;;
78120;SDS011;67585;44.802;10.332;2023-12-29T01:29:34;40.85;;;15.65;;
78120;SDS011;67585;44.802;10.332;2023-12-29T01:31:59;32.28;;;14.23;;
78120;SDS011;67585;44.802;10.332;2023-12-29T01:34:25;37.20;;;14.93;;
78120;SDS011;67585;44.802;10.332;2023-12-29T01:36:57;33.88;;;14.20;;
78120;SDS011;67585;44.802;10.332;2023-12-29T01:39:23;36.95;;;13.85;;
78120;SDS011;67585;44.802;10.332;2023-12-29T01:41:48;35.80;;;14.95;;
78120;SDS011;67585;44.802;10.332;2023-12-29T01:44:18;34.20;;;15.20;;
78120;SDS011;67585;44.802;10.332;2023-12-29T01:46:47;35.80;;;14.65;;
78120;SDS011;67585;44.802;10.332;2023-12-29T01:49:18;34.78;;;14.65;;
78120;SDS011;67585;44.802;10.332;2023-12-29T01:51:45;35.78;;;15.23;;
78120;SDS011;67585;44.802;10.332;2023-12-29T01:54:15;42.92;;;17.10;;
78120;SDS011;67585;44.802;10.332;2023-12-29T01:56:42;41.65;;;15.82;;
78120;SDS011;67585;44.802;10.332;2023-12-29T01:59:08;36.75;;;14.80;;
78120;SDS011;67585;44.802;10.332;2023-12-29T02:01:33;36.08;;;14.68;;
78120;SDS011;67585;44.802;10.332;2023-12-29T02:04:00;42.97;;;18.13;;
78120;SDS011;67585;44.802;10.332;2023-12-29T02:06:26;38.83;;;16.83;;
78120;SDS011;67585;44.802;10.332;2023-12-29T02:08:52;36.13;;;15.48;;
78120;SDS011;67585;44.802;10.332;2023-12-29T02:11:18;41.00;;;15.32;;
78120;SDS011;67585;44.802;10.332;2023-12-29T02:13:43;43.75;;;17.15;;
78120;SDS011;67585;44.802;10.332;2023-12-29T02:16:10;41.67;;;16.17;;
78120;SDS011;67585;44.802;10.332;2023-12-29T02:18:41;38.85;;;18.02;;
78120;SDS011;67585;44.802;10.332;2023-12-29T02:21:10;42.45;;;17.25;;
78120;SDS011;67585;44.802;10.332;2023-12-29T02:23:36;37.20;;;15.93;;
78120;SDS011;67585;44.802;10.332;2023-12-29T02:26:03;39.75;;;16.45;;
78120;SDS011;67585;44.802;10.332;2023-12-29T02:28:34;38.28;;;17.45;;
78120;SDS011;67585;44.802;10.332;2023-12-29T02:31:10;47.33;;;17.30;;
78120;SDS011;67585;44.802;10.332;2023-12-29T02:33:40;43.47;;;17.13;;
78120;SDS011;67585;44.802;10.332;2023-12-29T02:36:06;42.72;;;18.10;;
78120;SDS011;67585;44.802;10.332;2023-12-29T02:38:33;40.33;;;17.58;;
78120;SDS011;67585;44.802;10.332;2023-12-29T02:40:59;42.35;;;18.13;;
78120;SDS011;67585;44.802;10.332;2023-12-29T02:43:25;40.55;;;17.88;;
78120;SDS011;67585;44.802;10.332;2023-12-29T02:45:50;40.88;;;17.17;;
78120;SDS011;67585;44.802;10.332;2023-12-29T02:48:16;37.75;;;17.58;;
78120;SDS011;67585;44.802;10.332;2023-12-29T02:50:42;41.63;;;16.83;;
78120;SDS011;67585;44.802;10.332;2023-12-29T02:53:07;44.90;;;19.02;;
78120;SDS011;67585;44.802;10.332;2023-12-29T02:55:33;37.78;;;16.05;;
78120;SDS011;67585;44.802;10.332;2023-12-29T02:57:58;42.13;;;17.52;;
78120;SDS011;67585;44.802;10.332;2023-12-29T03:00:24;47.08;;;18.23;;
78120;SDS011;67585;44.802;10.332;2023-12-29T03:02:49;51.13;;;19.90;;
78120;SDS011;67585;44.802;10.332;2023-12-29T03:05:15;44.55;;;20.17;;
78120;SDS011;67585;44.802;10.332;2023-12-29T03:07:41;43.15;;;18.35;;
78120;SDS011;67585;44.802;10.332;2023-12-29T03:10:06;46.60;;;20.60;;
78120;SDS011;67585;44.802;10.332;2023-12-29T03:12:33;46.47;;;20.60;;
78120;SDS011;67585;44.802;10.332;2023-12-29T03:14:58;50.67;;;19.13;;
78120;SDS011;67585;44.802;10.332;2023-12-29T03:17:24;49.95;;;19.67;;
78120;SDS011;67585;44.802;10.332;2023-12-29T03:19:49;42.17;;;18.23;;
78120;SDS011;67585;44.802;10.332;2023-12-29T03:22:15;47.17;;;19.60;;
78120;SDS011;67585;44.802;10.332;2023-12-29T03:24:40;50.50;;;20.10;;
78120;SDS011;67585;44.802;10.332;2023-12-29T03:27:07;49.17;;;19.63;;
78120;SDS011;67585;44.802;10.332;2023-12-29T03:29:32;46.88;;;20.17;;
78120;SDS011;67585;44.802;10.332;2023-12-29T03:31:58;54.15;;;20.23;;
78120;SDS011;67585;44.802;10.332;2023-12-29T03:34:23;44.67;;;18.63;;
78120;SDS011;67585;44.802;10.332;2023-12-29T03:36:49;47.80;;;18.55;;
78120;SDS011;67585;44.802;10.332;2023-12-29T03:39:14;49.05;;;20.77;;
78120;SDS011;67585;44.802;10.332;2023-12-29T03:41:39;53.88;;;21.05;;
78120;SDS011;67585;44.802;10.332;2023-12-29T03:44:05;51.28;;;19.33;;
78120;SDS011;67585;44.802;10.332;2023-12-29T03:46:31;45.65;;;19.10;;
78120;SDS011;67585;44.802;10.332;2023-12-29T03:48:56;50.58;;;19.90;;
78120;SDS011;67585;44.802;10.332;2023-12-29T03:51:22;49.05;;;19.67;;
78120;SDS011;67585;44.802;10.332;2023-12-29T03:53:47;44.67;;;18.45;;
78120;SDS011;67585;44.802;10.332;2023-12-29T03:56:14;43.63;;;17.70;;
78120;SDS011;67585;44.802;10.332;2023-12-29T03:58:41;45.08;;;18.35;;
78120;SDS011;67585;44.802;10.332;2023-12-29T04:01:10;46.92;;;18.08;;
78120;SDS011;67585;44.802;10.332;2023-12-29T04:03:36;42.80;;;18.77;;
78120;SDS011;67585;44.802;10.332;2023-12-29T04:06:02;39.90;;;18.25;;
78120;SDS011;67585;44.802;10.332;2023-12-29T04:08:28;46.92;;;19.50;;
78120;SDS011;67585;44.802;10.332;2023-12-29T04:10:53;41.58;;;16.63;;
78120;SDS011;67585;44.802;10.332;2023-12-29T04:13:18;41.30;;;17.58;;
78120;SDS011;67585;44.802;10.332;2023-12-29T04:15:44;43.30;;;18.55;;
78120;SDS011;67585;44.802;10.332;2023-12-29T04:18:09;41.50;;;17.77;;
78120;SDS011;67585;44.802;10.332;2023-12-29T04:20:35;44.38;;;18.50;;
78120;SDS011;67585;44.802;10.332;2023-12-29T04:23:00;39.67;;;16.70;;
78120;SDS011;67585;44.802;10.332;2023-12-29T04:25:25;41.90;;;19.13;;
78120;SDS011;67585;44.802;10.332;2023-12-29T04:27:51;46.58;;;18.98;;
78120;SDS011;67585;44.802;10.332;2023-12-29T04:30:16;40.20;;;16.00;;
78120;SDS011;67585;44.802;10.332;2023-12-29T04:32:42;40.35;;;16.35;;
78120;SDS011;67585;44.802;10.332;2023-12-29T04:35:07;37.67;;;14.95;;
78120;SDS011;67585;44.802;10.332;2023-12-29T04:37:35;37.58;;;16.05;;
78120;SDS011;67585;44.802;10.332;2023-12-29T04:40:00;36.95;;;15.55;;
78120;SDS011;67585;44.802;10.332;2023-12-29T04:42:25;39.22;;;15.07;;
78120;SDS011;67585;44.802;10.332;2023-12-29T04:44:51;41.53;;;16.95;;
78120;SDS011;67585;44.802;10.332;2023-12-29T04:47:16;37.30;;;16.58;;
78120;SDS011;67585;44.802;10.332;2023-12-29T04:49:42;36.70;;;14.90;;
78120;SDS011;67585;44.802;10.332;2023-12-29T04:52:07;36.90;;;15.65;;
78120;SDS011;67585;44.802;10.332;2023-12-29T04:54:32;37.20;;;16.00;;
78120;SDS011;67585;44.802;10.332;2023-12-29T04:56:58;34.90;;;15.32;;
78120;SDS011;67585;44.802;10.332;2023-12-29T04:59:24;35.08;;;14.82;;
78120;SDS011;67585;44.802;10.332;2023-12-29T05:01:49;40.15;;;16.35;;
78120;SDS011;67585;44.802;10.332;2023-12-29T05:04:14;36.55;;;15.27;;
78120;SDS011;67585;44.802;10.332;2023-12-29T05:06:41;34.35;;;13.90;;
78120;SDS011;67585;44.802;10.332;2023-12-29T05:09:07;36.03;;;13.93;;
78120;SDS011;67585;44.802;10.332;2023-12-29T05:11:32;34.53;;;15.10;;
78120;SDS011;67585;44.802;10.332;2023-12-29T05:13:57;38.60;;;15.68;;
78120;SDS011;67585;44.802;10.332;2023-12-29T05:16:23;33.78;;;15.55;;
78120;SDS011;67585;44.802;10.332;2023-12-29T05:18:48;30.05;;;12.52;;
78120;SDS011;67585;44.802;10.332;2023-12-29T05:21:17;31.85;;;13.38;;
78120;SDS011;67585;44.802;10.332;2023-12-29T05:23:43;35.88;;;13.05;;
78120;SDS011;67585;44.802;10.332;2023-12-29T05:26:13;36.20;;;13.05;;
78120;SDS011;67585;44.802;10.332;2023-12-29T05:28:39;31.90;;;13.45;;
78120;SDS011;67585;44.802;10.332;2023-12-29T05:31:05;31.77;;;12.07;;
78120;SDS011;67585;44.802;10.332;2023-12-29T05:33:30;27.95;;;10.82;;
78120;SDS011;67585;44.802;10.332;2023-12-29T05:35:56;29.00;;;12.77;;
78120;SDS011;67585;44.802;10.332;2023-12-29T05:38:22;34.85;;;13.93;;
78120;SDS011;67585;44.802;10.332;2023-12-29T05:40:47;30.70;;;13.40;;
78120;SDS011;67585;44.802;10.332;2023-12-29T05:43:14;27.92;;;12.60;;
78120;SDS011;67585;44.802;10.332;2023-12-29T05:45:40;28.90;;;12.63;;
78120;SDS011;67585;44.802;10.332;2023-12-29T05:48:05;32.22;;;12.07;;
78120;SDS011;67585;44.802;10.332;2023-12-29T05:50:31;33.15;;;13.90;;
78120;SDS011;67585;44.802;10.332;2023-12-29T05:52:57;36.58;;;13.35;;
78120;SDS011;67585;44.802;10.332;2023-12-29T05:55:22;41.60;;;16.60;;
78120;SDS011;67585;44.802;10.332;2023-12-29T05:57:47;36.22;;;14.02;;
78120;SDS011;67585;44.802;10.332;2023-12-29T06:00:13;35.38;;;14.48;;
78120;SDS011;67585;44.802;10.332;2023-12-29T06:02:42;37.67;;;16.40;;
78120;SDS011;67585;44.802;10.332;2023-12-29T06:05:11;33.53;;;15.77;;
78120;SDS011;67585;44.802;10.332;2023-12-29T06:07:37;36.50;;;16.25;;
78120;SDS011;67585;44.802;10.332;2023-12-29T06:10:03;35.83;;;15.20;;
78120;SDS011;67585;44.802;10.332;2023-12-29T06:12:29;40.75;;;17.25;;
78120;SDS011;67585;44.802;10.332;2023-12-29T06:14:54;39.08;;;16.35;;
78120;SDS011;67585;44.802;10.332;2023-12-29T06:17:20;37.22;;;15.77;;
78120;SDS011;67585;44.802;10.332;2023-12-29T06:19:45;31.05;;;14.43;;
78120;SDS011;67585;44.802;10.332;2023-12-29T06:22:11;35.67;;;14.85;;
78120;SDS011;67585;44.802;10.332;2023-12-29T06:24:39;40.78;;;15.23;;
78120;SDS011;67585;44.802;10.332;2023-12-29T06:27:07;39.42;;;15.93;;
78120;SDS011;67585;44.802;10.332;2023-12-29T06:29:33;40.53;;;16.02;;
78120;SDS011;67585;44.802;10.332;2023-12-29T06:31:58;41.25;;;15.82;;
78120;SDS011;67585;44.802;10.332;2023-12-29T06:34:24;42.38;;;16.55;;
78120;SDS011;67585;44.802;10.332;2023-12-29T06:36:50;36.47;;;17.15;;
78120;SDS011;67585;44.802;10.332;2023-12-29T06:39:15;44.35;;;17.15;;
78120;SDS011;67585;44.802;10.332;2023-12-29T06:41:41;38.97;;;17.05;;
78120;SDS011;67585;44.802;10.332;2023-12-29T06:44:06;38.42;;;15.68;;
78120;SDS011;67585;44.802;10.332;2023-12-29T06:46:31;39.03;;;16.17;;
78120;SDS011;67585;44.802;10.332;2023-12-29T06:48:57;42.25;;;16.45;;
78120;SDS011;67585;44.802;10.332;2023-12-29T06:51:22;38.63;;;15.65;;
78120;SDS011;67585;44.802;10.332;2023-12-29T06:53:48;39.05;;;16.58;;
78120;SDS011;67585;44.802;10.332;2023-12-29T06:56:17;43.05;;;17.75;;
78120;SDS011;67585;44.802;10.332;2023-12-29T06:58:45;38.03;;;15.45;;
78120;SDS011;67585;44.802;10.332;2023-12-29T07:01:11;43.97;;;17.48;;
78120;SDS011;67585;44.802;10.332;2023-12-29T07:03:37;35.92;;;16.80;;
78120;SDS011;67585;44.802;10.332;2023-12-29T07:06:02;38.45;;;17.02;;
78120;SDS011;67585;44.802;10.332;2023-12-29T07:08:28;41.95;;;17.73;;
78120;SDS011;67585;44.802;10.332;2023-12-29T07:10:54;43.78;;;17.33;;
78120;SDS011;67585;44.802;10.332;2023-12-29T07:13:19;42.05;;;17.33;;
78120;SDS011;67585;44.802;10.332;2023-12-29T07:15:46;40.80;;;16.95;;
78120;SDS011;67585;44.802;10.332;2023-12-29T07:20:37;38.60;;;14.70;;
78120;SDS011;67585;44.802;10.332;2023-12-29T07:23:02;36.20;;;14.68;;
78120;SDS011;67585;44.802;10.332;2023-12-29T07:25:28;38.50;;;15.80;;
78120;SDS011;67585;44.802;10.332;2023-12-29T07:27:53;36.45;;;15.55;;
78120;SDS011;67585;44.802;10.332;2023-12-29T07:30:19;36.88;;;13.80;;
78120;SDS011;67585;44.802;10.332;2023-12-29T07:32:44;37.55;;;15.27;;
78120;SDS011;67585;44.802;10.332;2023-12-29T07:35:10;37.45;;;14.55;;
78120;SDS011;67585;44.802;10.332;2023-12-29T07:37:35;36.83;;;14.20;;
78120;SDS011;67585;44.802;10.332;2023-12-29T07:40:00;36.28;;;14.73;;
78120;SDS011;67585;44.802;10.332;2023-12-29T07:42:26;32.78;;;13.68;;
78120;SDS011;67585;44.802;10.332;2023-12-29T07:44:51;36.95;;;14.93;;
78120;SDS011;67585;44.802;10.332;2023-12-29T07:47:17;33.35;;;13.48;;
78120;SDS011;67585;44.802;10.332;2023-12-29T07:49:42;38.25;;;13.95;;
78120;SDS011;67585;44.802;10.332;2023-12-29T07:52:08;36.28;;;15.20;;
78120;SDS011;67585;44.802;10.332;2023-12-29T07:54:34;43.10;;;16.92;;
78120;SDS011;67585;44.802;10.332;2023-12-29T07:56:59;38.13;;;16.65;;
78120;SDS011;67585;44.802;10.332;2023-12-29T07:59:24;38.85;;;16.08;;
78120;SDS011;67585;44.802;10.332;2023-12-29T08:01:50;37.38;;;15.20;;
78120;SDS011;67585;44.802;10.332;2023-12-29T08:04:15;44.97;;;18.10;;
78120;SDS011;67585;44.802;10.332;2023-12-29T08:06:41;41.15;;;17.27;;
78120;SDS011;67585;44.802;10.332;2023-12-29T08:09:07;33.67;;;13.85;;
78120;SDS011;67585;44.802;10.332;2023-12-29T08:11:32;43.20;;;15.15;;
78120;SDS011;67585;44.802;10.332;2023-12-29T08:13:58;38.75;;;15.50;;
78120;SDS011;67585;44.802;10.332;2023-12-29T08:16:23;36.33;;;16.55;;
78120;SDS011;67585;44.802;10.332;2023-12-29T08:18:49;42.88;;;16.52;;
78120;SDS011;67585;44.802;10.332;2023-12-29T08:21:21;35.28;;;14.68;;
78120;SDS011;67585;44.802;10.332;2023-12-29T08:23:47;34.15;;;13.20;;
78120;SDS011;67585;44.802;10.332;2023-12-29T08:26:13;35.05;;;14.52;;
78120;SDS011;67585;44.802;10.332;2023-12-29T08:28:39;32.67;;;13.15;;
78120;SDS011;67585;44.802;10.332;2023-12-29T08:31:06;30.02;;;13.13;;
78120;SDS011;67585;44.802;10.332;2023-12-29T08:33:32;38.13;;;13.43;;
78120;SDS011;67585;44.802;10.332;2023-12-29T08:35:57;33.47;;;13.70;;
78120;SDS011;67585;44.802;10.332;2023-12-29T08:38:26;39.63;;;15.90;;
78120;SDS011;67585;44.802;10.332;2023-12-29T08:40:51;32.40;;;13.70;;
78120;SDS011;67585;44.802;10.332;2023-12-29T08:43:17;39.33;;;13.80;;
78120;SDS011;67585;44.802;10.332;2023-12-29T08:45:46;35.10;;;14.43;;
78120;SDS011;67585;44.802;10.332;2023-12-29T08:48:14;31.35;;;12.95;;
78120;SDS011;67585;44.802;10.332;2023-12-29T08:50:39;33.60;;;13.50;;
78120;SDS011;67585;44.802;10.332;2023-12-29T08:53:05;32.08;;;12.98;;
78120;SDS011;67585;44.802;10.332;2023-12-29T08:55:30;32.15;;;11.90;;
78120;SDS011;67585;44.802;10.332;2023-12-29T08:57:56;34.35;;;13.57;;
78120;SDS011;67585;44.802;10.332;2023-12-29T09:00:22;39.35;;;14.20;;
78120;SDS011;67585;44.802;10.332;2023-12-29T09:02:48;31.48;;;13.68;;
78120;SDS011;67585;44.802;10.332;2023-12-29T09:05:14;35.90;;;14.00;;
78120;SDS011;67585;44.802;10.332;2023-12-29T09:07:39;29.35;;;13.20;;
78120;SDS011;67585;44.802;10.332;2023-12-29T09:10:05;36.53;;;13.80;;
78120;SDS011;67585;44.802;10.332;2023-12-29T09:12:37;31.23;;;12.98;;
78120;SDS011;67585;44.802;10.332;2023-12-29T09:15:03;29.08;;;11.68;;
78120;SDS011;67585;44.802;10.332;2023-12-29T09:17:30;29.33;;;12.95;;
78120;SDS011;67585;44.802;10.332;2023-12-29T09:19:55;28.83;;;12.23;;
78120;SDS011;67585;44.802;10.332;2023-12-29T09:22:21;29.23;;;12.70;;
78120;SDS011;67585;44.802;10.332;2023-12-29T09:24:46;29.95;;;11.55;;
78120;SDS011;67585;44.802;10.332;2023-12-29T09:27:11;33.72;;;12.20;;
78120;SDS011;67585;44.802;10.332;2023-12-29T09:29:37;31.75;;;13.43;;
78120;SDS011;67585;44.802;10.332;2023-12-29T09:32:02;34.67;;;12.90;;
78120;SDS011;67585;44.802;10.332;2023-12-29T09:34:28;34.28;;;12.93;;
78120;SDS011;67585;44.802;10.332;2023-12-29T09:36:53;30.73;;;13.40;;
78120;SDS011;67585;44.802;10.332;2023-12-29T09:39:19;27.63;;;12.40;;
78120;SDS011;67585;44.802;10.332;2023-12-29T09:41:45;36.10;;;13.63;;
78120;SDS011;67585;44.802;10.332;2023-12-29T09:44:15;34.95;;;12.60;;
78120;SDS011;67585;44.802;10.332;2023-12-29T09:46:44;32.97;;;13.07;;
78120;SDS011;67585;44.802;10.332;2023-12-29T09:49:15;33.75;;;13.93;;
78120;SDS011;67585;44.802;10.332;2023-12-29T09:51:43;30.25;;;12.82;;
78120;SDS011;67585;44.802;10.332;2023-12-29T09:54:09;30.38;;;13.52;;
78120;SDS011;67585;44.802;10.332;2023-12-29T09:56:36;35.47;;;13.57;;
78120;SDS011;67585;44.802;10.332;2023-12-29T09:59:02;34.78;;;13.68;;
78120;SDS011;67585;44.802;10.332;2023-12-29T10:01:28;29.63;;;12.50;;
78120;SDS011;67585;44.802;10.332;2023-12-29T10:03:54;31.10;;;13.38;;
78120;SDS011;67585;44.802;10.332;2023-12-29T10:06:20;32.17;;;13.15;;
78120;SDS011;67585;44.802;10.332;2023-12-29T10:08:49;28.05;;;11.35;;
78120;SDS011;67585;44.802;10.332;2023-12-29T10:11:18;31.27;;;12.18;;
78120;SDS011;67585;44.802;10.332;2023-12-29T10:13:51;27.42;;;12.27;;
78120;SDS011;67585;44.802;10.332;2023-12-29T10:19:05;29.20;;;11.50;;
78120;SDS011;67585;44.802;10.332;2023-12-29T10:21:56;29.17;;;11.45;;
78120;SDS011;67585;44.802;10.332;2023-12-29T10:24:29;30.85;;;12.30;;
78120;SDS011;67585;44.802;10.332;2023-12-29T10:26:54;25.70;;;12.43;;
78120;SDS011;67585;44.802;10.332;2023-12-29T10:29:20;25.35;;;11.55;;
78120;SDS011;67585;44.802;10.332;2023-12-29T10:31:46;30.02;;;12.82;;
78120;SDS011;67585;44.802;10.332;2023-12-29T10:34:16;31.77;;;13.20;;
78120;SDS011;67585;44.802;10.332;2023-12-29T10:36:49;31.35;;;12.57;;
78120;SDS011;67585;44.802;10.332;2023-12-29T10:39:14;37.00;;;13.75;;
78120;SDS011;67585;44.802;10.332;2023-12-29T10:41:40;31.75;;;12.20;;
78120;SDS011;67585;44.802;10.332;2023-12-29T10:44:06;33.10;;;12.07;;
78120;SDS011;67585;44.802;10.332;2023-12-29T10:46:33;26.80;;;12.05;;
78120;SDS011;67585;44.802;10.332;2023-12-29T10:49:11;33.45;;;12.10;;
78120;SDS011;67585;44.802;10.332;2023-12-29T10:51:38;35.05;;;12.95;;
78120;SDS011;67585;44.802;10.332;2023-12-29T10:54:04;27.23;;;12.43;;
78120;SDS011;67585;44.802;10.332;2023-12-29T10:56:31;30.15;;;12.10;;
78120;SDS011;67585;44.802;10.332;2023-12-29T10:58:57;29.23;;;11.48;;
78120;SDS011;67585;44.802;10.332;2023-12-29T11:01:28;27.33;;;10.75;;
78120;SDS011;67585;44.802;10.332;2023-12-29T11:04:00;28.40;;;13.10;;
78120;SDS011;67585;44.802;10.332;2023-12-29T11:06:27;32.35;;;12.95;;
78120;SDS011;67585;44.802;10.332;2023-12-29T11:08:56;29.92;;;13.02;;
78120;SDS011;67585;44.802;10.332;2023-12-29T11:11:22;32.03;;;12.15;;
78120;SDS011;67585;44.802;10.332;2023-12-29T11:13:48;33.53;;;12.60;;
78120;SDS011;67585;44.802;10.332;2023-12-29T11:16:14;30.45;;;10.85;;
78120;SDS011;67585;44.802;10.332;2023-12-29T11:18:47;34.10;;;12.80;;
78120;SDS011;67585;44.802;10.332;2023-12-29T11:21:14;31.83;;;12.73;;
78120;SDS011;67585;44.802;10.332;2023-12-29T11:26:07;28.70;;;11.25;;
78120;SDS011;67585;44.802;10.332;2023-12-29T11:28:33;27.40;;;12.57;;
78120;SDS011;67585;44.802;10.332;2023-12-29T11:30:59;28.00;;;11.18;;
78120;SDS011;67585;44.802;10.332;2023-12-29T11:33:26;29.42;;;11.80;;
78120;SDS011;67585;44.802;10.332;2023-12-29T11:36:00;29.95;;;12.20;;
78120;SDS011;67585;44.802;10.332;2023-12-29T11:44:08;30.52;;;11.38;;
78120;SDS011;67585;44.802;10.332;2023-12-29T11:46:37;29.58;;;11.55;;
78120;SDS011;67585;44.802;10.332;2023-12-29T11:49:04;30.30;;;11.82;;
78120;SDS011;67585;44.802;10.332;2023-12-29T11:51:40;29.25;;;10.68;;
78120;SDS011;67585;44.802;10.332;2023-12-29T11:54:30;27.92;;;11.27;;
78120;SDS011;67585;44.802;10.332;2023-12-29T11:56:55;26.02;;;12.07;;
78120;SDS011;67585;44.802;10.332;2023-12-29T11:59:24;25.98;;;11.02;;
78120;SDS011;67585;44.802;10.332;2023-12-29T12:07:04;29.45;;;12.77;;
78120;SDS011;67585;44.802;10.332;2023-12-29T12:09:31;31.55;;;12.05;;
78120;SDS011;67585;44.802;10.332;2023-12-29T12:11:59;29.27;;;13.43;;
78120;SDS011;67585;44.802;10.332;2023-12-29T12:17:33;30.00;;;12.38;;
78120;SDS011;67585;44.802;10.332;2023-12-29T12:20:00;30.75;;;13.10;;
78120;SDS011;67585;44.802;10.332;2023-12-29T12:22:29;34.05;;;13.13;;
78120;SDS011;67585;44.802;10.332;2023-12-29T12:24:59;30.45;;;12.85;;
78120;SDS011;67585;44.802;10.332;2023-12-29T12:27:25;36.47;;;12.68;;
78120;SDS011;67585;44.802;10.332;2023-12-29T12:29:58;28.02;;;12.82;;
78120;SDS011;67585;44.802;10.332;2023-12-29T12:32:28;27.25;;;11.75;;
78120;SDS011;67585;44.802;10.332;2023-12-29T12:34:54;32.63;;;12.18;;
78120;SDS011;67585;44.802;10.332;2023-12-29T12:37:21;31.73;;;13.15;;
78120;SDS011;67585;44.802;10.332;2023-12-29T12:39:50;31.35;;;12.48;;
78120;SDS011;67585;44.802;10.332;2023-12-29T12:42:17;35.33;;;12.75;;
78120;SDS011;67585;44.802;10.332;2023-12-29T12:44:47;34.60;;;12.38;;
78120;SDS011;67585;44.802;10.332;2023-12-29T12:47:16;30.52;;;12.80;;
78120;SDS011;67585;44.802;10.332;2023-12-29T12:49:47;31.20;;;11.25;;
78120;SDS011;67585;44.802;10.332;2023-12-29T12:52:13;26.30;;;11.50;;
78120;SDS011;67585;44.802;10.332;2023-12-29T12:54:38;30.50;;;12.18;;
78120;SDS011;67585;44.802;10.332;2023-12-29T12:57:04;35.28;;;12.52;;
78120;SDS011;67585;44.802;10.332;2023-12-29T12:59:29;31.05;;;12.18;;
78120;SDS011;67585;44.802;10.332;2023-12-29T13:01:55;29.58;;;11.95;;
78120;SDS011;67585;44.802;10.332;2023-12-29T13:04:21;31.63;;;13.23;;
78120;SDS011;67585;44.802;10.332;2023-12-29T13:06:49;26.80;;;12.55;;
78120;SDS011;67585;44.802;10.332;2023-12-29T13:09:14;29.73;;;12.57;;
78120;SDS011;67585;44.802;10.332;2023-12-29T13:11:44;32.70;;;11.13;;
78120;SDS011;67585;44.802;10.332;2023-12-29T13:14:18;28.60;;;12.50;;
78120;SDS011;67585;44.802;10.332;2023-12-29T13:16:47;26.13;;;10.63;;
78120;SDS011;67585;44.802;10.332;2023-12-29T13:19:17;23.92;;;10.75;;
78120;SDS011;67585;44.802;10.332;2023-12-29T13:21:50;27.60;;;11.48;;
78120;SDS011;67585;44.802;10.332;2023-12-29T13:24:20;27.90;;;12.05;;
78120;SDS011;67585;44.802;10.332;2023-12-29T13:26:47;26.35;;;11.60;;
78120;SDS011;67585;44.802;10.332;2023-12-29T13:29:21;27.55;;;13.27;;
78120;SDS011;67585;44.802;10.332;2023-12-29T13:31:50;26.08;;;10.80;;
78120;SDS011;67585;44.802;10.332;2023-12-29T13:34:27;29.98;;;12.30;;
78120;SDS011;67585;44.802;10.332;2023-12-29T13:40:03;26.98;;;12.00;;
78120;SDS011;67585;44.802;10.332;2023-12-29T13:42:44;32.95;;;13.18;;
78120;SDS011;67585;44.802;10.332;2023-12-29T13:45:12;31.92;;;12.52;;
78120;SDS011;67585;44.802;10.332;2023-12-29T13:47:40;31.05;;;13.00;;
78120;SDS011;67585;44.802;10.332;2023-12-29T13:50:08;34.10;;;13.05;;
78120;SDS011;67585;44.802;10.332;2023-12-29T13:52:35;33.65;;;13.40;;
78120;SDS011;67585;44.802;10.332;2023-12-29T13:55:02;31.95;;;12.82;;
78120;SDS011;67585;44.802;10.332;2023-12-29T13:57:31;27.10;;;10.98;;
78120;SDS011;67585;44.802;10.332;2023-12-29T14:00:12;27.27;;;11.40;;
78120;SDS011;67585;44.802;10.332;2023-12-29T14:02:43;28.15;;;13.05;;
78120;SDS011;67585;44.802;10.332;2023-12-29T14:10:33;33.50;;;11.77;;
78120;SDS011;67585;44.802;10.332;2023-12-29T14:13:07;33.17;;;14.05;;
78120;SDS011;67585;44.802;10.332;2023-12-29T14:15:37;29.05;;;13.00;;
78120;SDS011;67585;44.802;10.332;2023-12-29T14:18:16;30.33;;;13.85;;
78120;SDS011;67585;44.802;10.332;2023-12-29T14:24:06;33.05;;;12.48;;
78120;SDS011;67585;44.802;10.332;2023-12-29T14:26:34;32.10;;;13.32;;
78120;SDS011;67585;44.802;10.332;2023-12-29T14:29:05;32.90;;;12.57;;
78120;SDS011;67585;44.802;10.332;2023-12-29T14:31:48;35.65;;;14.65;;
78120;SDS011;67585;44.802;10.332;2023-12-29T14:34:18;29.90;;;12.20;;
78120;SDS011;67585;44.802;10.332;2023-12-29T14:36:44;33.05;;;12.48;;
78120;SDS011;67585;44.802;10.332;2023-12-29T14:39:11;33.95;;;13.10;;
78120;SDS011;67585;44.802;10.332;2023-12-29T14:41:36;29.30;;;13.73;;